Obert, Nebraska
Current Conditions -  °F | °C
As of 3:30 PM on Saturday 25 Oct 2014 (Local Time) from KLCG Reporting Station
Clear Clear  
Wind Chill: 70°   Ceiling: Unl
Heat Index: 70°   Visibility: 10mi
Dew Point: 33°   Wind: 7mph
Humidity: 25%   Direction: 100°E
Pressure: 30.09"   Gusts: NA
Location:  42.5999°N, 96.8805°W
Report Text: KLCG 252030Z AUTO 10006KT 10SM CLR 21/01 A3009 RMK AO2 T02130005
Loading
Personal Weather Stations






























Interactive Weather Map
Tropical Storm Tracking
New forecast layout! Learn more

10-Day Weather Forecast

Advertisements
Track Severe Weather on mobile